createdAt,value
2023-02-03T00:00:08.083Z,64.30
2023-02-03T00:01:17.316Z,64.24
2023-02-03T00:02:19.661Z,64.22
2023-02-03T00:03:22.008Z,64.21
2023-02-03T00:04:24.755Z,64.22
2023-02-03T00:05:27.989Z,64.21
2023-02-03T00:06:32.262Z,64.36
2023-02-03T00:07:36.266Z,64.21
2023-02-03T00:08:39.767Z,64.38
2023-02-03T00:09:42.185Z,64.30
2023-02-03T00:10:44.916Z,64.35
2023-02-03T00:11:47.231Z,64.31
2023-02-03T00:12:52.894Z,64.27
2023-02-03T00:13:56.410Z,64.37
2023-02-03T00:14:58.545Z,64.32
2023-02-03T00:16:02.437Z,64.22
2023-02-03T00:17:05.319Z,64.29
2023-02-03T00:18:07.609Z,64.55
2023-02-03T00:19:09.842Z,64.38
2023-02-03T00:20:12.346Z,64.55
2023-02-03T00:21:15.396Z,64.46
2023-02-03T00:22:17.740Z,64.41
2023-02-03T00:23:20.744Z,64.31
2023-02-03T00:24:24.114Z,64.34
2023-02-03T00:25:26.318Z,64.31
2023-02-03T00:26:28.809Z,64.30
2023-02-03T00:27:32.611Z,64.24
2023-02-03T00:28:34.841Z,64.37
2023-02-03T00:29:37.017Z,64.31
2023-02-03T00:30:39.209Z,64.28
2023-02-03T00:31:42.549Z,64.39
2023-02-03T00:32:46.898Z,64.45
2023-02-03T00:33:54.423Z,64.38
2023-02-03T00:34:56.840Z,64.48
2023-02-03T00:36:00.992Z,64.31
2023-02-03T00:37:03.641Z,64.32
2023-02-03T00:38:06.509Z,64.41
2023-02-03T00:39:08.783Z,64.28
2023-02-03T00:40:11.794Z,64.36
2023-02-03T00:41:13.992Z,64.35
2023-02-03T00:42:16.804Z,64.42
2023-02-03T00:43:20.942Z,64.52
2023-02-03T00:44:23.193Z,64.61
2023-02-03T00:45:26.772Z,64.49
2023-02-03T00:46:30.891Z,64.64
2023-02-03T00:47:33.086Z,64.52
2023-02-03T00:48:35.408Z,64.54
2023-02-03T00:49:37.597Z,64.67
2023-02-03T00:50:40.236Z,64.79
2023-02-03T00:51:42.795Z,64.58
2023-02-03T00:52:45.043Z,64.64
2023-02-03T00:53:48.236Z,64.54
2023-02-03T00:54:50.539Z,64.60
2023-02-03T00:55:54.092Z,64.54
2023-02-03T00:56:57.738Z,64.48
2023-02-03T00:58:01.157Z,64.48
2023-02-03T00:59:03.407Z,64.56
2023-02-03T01:00:07.807Z,64.46
2023-02-03T01:01:12.398Z,64.33
2023-02-03T01:02:14.988Z,64.27
2023-02-03T01:03:17.203Z,64.40
2023-02-03T01:04:19.368Z,64.50
2023-02-03T01:05:21.647Z,64.67
2023-02-03T01:06:23.975Z,64.71
2023-02-03T01:07:26.300Z,64.60
2023-02-03T01:08:28.534Z,64.46
2023-02-03T01:09:34.893Z,64.44
2023-02-03T01:10:38.758Z,64.46
2023-02-03T01:11:41.079Z,64.31
2023-02-03T01:12:45.496Z,64.43
2023-02-03T01:13:49.058Z,64.64
2023-02-03T01:14:58.546Z,64.48
2023-02-03T01:16:00.904Z,64.46
2023-02-03T01:17:03.325Z,64.65
2023-02-03T01:18:05.622Z,64.45
2023-02-03T01:19:07.816Z,64.31
2023-02-03T01:20:12.466Z,64.42
2023-02-03T01:21:20.769Z,64.50
2023-02-03T01:22:25.697Z,64.44
2023-02-03T01:23:27.922Z,64.44
2023-02-03T01:24:31.028Z,64.57
2023-02-03T01:25:35.714Z,64.47
2023-02-03T01:26:38.232Z,64.64
2023-02-03T01:27:40.429Z,64.44
2023-02-03T01:28:43.219Z,64.46
2023-02-03T01:29:46.997Z,64.57
2023-02-03T01:30:49.304Z,64.62
2023-02-03T01:31:51.715Z,64.67
2023-02-03T01:32:53.979Z,64.66
2023-02-03T01:33:57.478Z,64.72
2023-02-03T01:34:59.760Z,64.73
2023-02-03T01:36:03.101Z,64.61
2023-02-03T01:37:08.189Z,64.63
2023-02-03T01:38:10.385Z,64.67
2023-02-03T01:39:13.238Z,64.65
2023-02-03T01:40:15.469Z,64.57
2023-02-03T01:41:21.481Z,64.65
2023-02-03T01:42:23.803Z,64.48
2023-02-03T01:43:31.176Z,64.46
2023-02-03T01:44:55.997Z,64.43
2023-02-03T01:45:59.808Z,64.40
2023-02-03T01:47:04.893Z,64.60
2023-02-03T01:48:08.587Z,64.64
2023-02-03T01:49:10.706Z,64.58
2023-02-03T01:50:18.810Z,64.46
2023-02-03T01:51:22.837Z,64.64
2023-02-03T01:52:26.384Z,64.77
2023-02-03T01:53:28.771Z,64.71
2023-02-03T01:54:37.796Z,64.83
2023-02-03T01:55:44.515Z,64.84
2023-02-03T01:56:52.147Z,64.93
2023-02-03T01:58:01.244Z,64.77
2023-02-03T01:59:04.044Z,64.93
2023-02-03T02:00:08.282Z,64.69
2023-02-03T02:01:18.527Z,64.81
2023-02-03T02:02:24.301Z,64.74
2023-02-03T02:03:57.641Z,64.97
2023-02-03T02:05:14.920Z,64.85
2023-02-03T02:06:17.480Z,64.74
2023-02-03T02:07:19.777Z,65.00
2023-02-03T02:08:23.213Z,64.84
2023-02-03T02:09:27.006Z,64.85
2023-02-03T02:10:30.731Z,65.00
2023-02-03T02:11:34.861Z,65.01
2023-02-03T02:12:37.413Z,65.07
2023-02-03T02:13:40.156Z,65.05
2023-02-03T02:14:44.715Z,65.09
2023-02-03T02:16:04.213Z,65.07
2023-02-03T02:17:17.587Z,65.09
2023-02-03T02:18:41.651Z,65.03
2023-02-03T02:20:03.239Z,65.01
2023-02-03T02:21:33.749Z,65.18
2023-02-03T02:23:00.965Z,65.27
2023-02-03T02:24:28.066Z,65.30
2023-02-03T02:25:49.049Z,65.51
2023-02-03T02:27:00.206Z,65.58
2023-02-03T02:28:15.769Z,65.58
2023-02-03T02:29:54.903Z,65.55
2023-02-03T02:31:34.920Z,65.33
2023-02-03T02:33:02.975Z,65.49
2023-02-03T02:34:15.536Z,65.73
2023-02-03T02:35:42.898Z,65.75
2023-02-03T02:37:12.567Z,65.86
2023-02-03T02:38:37.518Z,65.71
2023-02-03T02:39:57.126Z,65.89
2023-02-03T02:41:11.830Z,66.01
2023-02-03T02:42:37.195Z,66.15
2023-02-03T02:43:48.088Z,66.06
2023-02-03T02:45:02.290Z,66.29
2023-02-03T02:46:11.628Z,66.32
2023-02-03T02:47:19.293Z,66.31
2023-02-03T02:48:27.471Z,66.25
2023-02-03T02:49:44.875Z,66.36
2023-02-03T02:50:49.955Z,66.40
2023-02-03T02:51:53.899Z,66.36
2023-02-03T02:52:57.631Z,66.37
2023-02-03T02:54:04.064Z,66.41
2023-02-03T02:55:19.840Z,66.53
2023-02-03T02:56:24.908Z,66.50
2023-02-03T02:57:28.979Z,66.60
2023-02-03T02:58:34.154Z,66.62
2023-02-03T02:59:36.611Z,66.60
2023-02-03T03:00:41.382Z,66.77
2023-02-03T03:01:44.976Z,66.81
2023-02-03T03:02:48.068Z,66.81
2023-02-03T03:03:50.493Z,66.84
2023-02-03T03:04:53.143Z,67.11
2023-02-03T03:06:01.139Z,67.08
2023-02-03T03:07:14.119Z,67.00
2023-02-03T03:08:19.988Z,67.12
2023-02-03T03:09:27.291Z,66.99
2023-02-03T03:10:35.279Z,67.26
2023-02-03T03:11:43.999Z,67.31
2023-02-03T03:12:52.902Z,67.17
2023-02-03T03:13:56.511Z,67.29
2023-02-03T03:15:04.183Z,67.42
2023-02-03T03:16:10.087Z,67.33
2023-02-03T03:17:18.493Z,67.44
2023-02-03T03:18:32.985Z,67.51
2023-02-03T03:19:42.595Z,67.60
2023-02-03T03:20:47.687Z,67.57
2023-02-03T03:21:55.160Z,67.46
2023-02-03T03:23:05.987Z,67.55
2023-02-03T03:24:13.129Z,67.70
2023-02-03T03:25:22.587Z,67.62
2023-02-03T03:26:50.156Z,67.69
2023-02-03T03:27:59.185Z,67.79
2023-02-03T03:29:06.488Z,67.92
2023-02-03T03:30:16.578Z,67.89
2023-02-03T03:31:20.658Z,67.93
2023-02-03T03:32:23.455Z,68.10
2023-02-03T03:33:26.036Z,68.23
2023-02-03T03:34:29.552Z,68.56
2023-02-03T03:36:05.514Z,68.83
2023-02-03T03:37:15.078Z,69.00
2023-02-03T03:38:33.467Z,69.21
2023-02-03T03:39:57.442Z,69.27
2023-02-03T03:41:05.966Z,69.29
2023-02-03T03:42:18.476Z,69.60
2023-02-03T03:43:26.038Z,69.73
2023-02-03T03:44:38.088Z,70.01
2023-02-03T03:45:49.598Z,69.94
2023-02-03T03:46:59.831Z,70.31
2023-02-03T03:48:17.803Z,70.32
2023-02-03T03:49:22.326Z,70.30
2023-02-03T03:50:32.598Z,70.52
2023-02-03T03:51:40.896Z,70.65
2023-02-03T03:52:46.733Z,70.59
2023-02-03T03:53:52.100Z,70.76
2023-02-03T03:54:55.963Z,70.70
2023-02-03T03:56:02.122Z,70.82
2023-02-03T03:57:15.251Z,70.77
2023-02-03T03:58:23.197Z,71.05
2023-02-03T03:59:28.556Z,70.97
2023-02-03T04:00:34.867Z,71.03
2023-02-03T04:01:41.209Z,71.02
2023-02-03T04:02:50.802Z,71.26
2023-02-03T04:03:59.846Z,71.22
2023-02-03T04:05:03.542Z,71.13
2023-02-03T04:06:07.090Z,71.19
2023-02-03T04:07:12.342Z,71.16
2023-02-03T04:08:14.621Z,71.15
2023-02-03T04:09:17.660Z,71.04
2023-02-03T04:10:30.588Z,71.37
2023-02-03T04:11:51.520Z,71.24
2023-02-03T04:12:53.691Z,71.32
2023-02-03T04:13:55.940Z,71.34
2023-02-03T04:14:58.158Z,71.42
2023-02-03T04:16:00.784Z,71.42
2023-02-03T04:17:03.084Z,71.46
2023-02-03T04:18:06.836Z,71.57
2023-02-03T04:19:09.139Z,71.68
2023-02-03T04:20:12.206Z,71.61
2023-02-03T04:21:14.745Z,71.55
2023-02-03T04:22:18.227Z,71.59
2023-02-03T04:23:21.613Z,71.67
2023-02-03T04:24:24.097Z,71.63
2023-02-03T04:25:26.623Z,71.51
2023-02-03T04:26:28.883Z,71.32
2023-02-03T04:27:31.145Z,71.58
2023-02-03T04:28:33.340Z,71.61
2023-02-03T04:29:35.595Z,71.60
2023-02-03T04:30:37.802Z,71.58
2023-02-03T04:31:41.635Z,71.55
2023-02-03T04:32:45.186Z,71.43
2023-02-03T04:33:47.467Z,71.33
2023-02-03T04:34:51.624Z,71.20
2023-02-03T04:35:53.803Z,71.13
2023-02-03T04:36:56.043Z,71.15
2023-02-03T04:37:58.297Z,71.15
2023-02-03T04:39:00.645Z,71.09
2023-02-03T04:40:03.481Z,71.16
2023-02-03T04:41:05.731Z,71.08
2023-02-03T04:42:08.063Z,71.03
2023-02-03T04:43:10.323Z,70.76
2023-02-03T04:44:13.647Z,70.87
2023-02-03T04:45:15.913Z,71.08
2023-02-03T04:46:19.127Z,71.03
2023-02-03T04:47:21.347Z,70.63
2023-02-03T04:48:23.925Z,70.87
2023-02-03T04:49:27.397Z,70.84
2023-02-03T04:50:31.134Z,70.80
2023-02-03T04:51:33.748Z,70.74
2023-02-03T04:52:35.927Z,70.72
2023-02-03T04:53:38.129Z,70.71
2023-02-03T04:54:40.433Z,70.66
2023-02-03T04:55:46.951Z,70.68
2023-02-03T04:56:49.375Z,70.71
2023-02-03T04:57:56.245Z,70.60
2023-02-03T04:58:58.462Z,70.59
2023-02-03T05:00:12.107Z,70.50
2023-02-03T05:01:15.412Z,70.51
2023-02-03T05:02:17.771Z,70.40
2023-02-03T05:03:20.276Z,70.29
2023-02-03T05:04:24.154Z,70.40
2023-02-03T05:05:26.368Z,70.11
2023-02-03T05:06:30.185Z,70.30
2023-02-03T05:07:32.438Z,70.10
2023-02-03T05:08:34.661Z,70.16
2023-02-03T05:09:36.936Z,70.09
2023-02-03T05:10:39.843Z,70.12
2023-02-03T05:11:42.296Z,70.01
2023-02-03T05:12:44.580Z,70.02
2023-02-03T05:13:46.801Z,70.00
2023-02-03T05:14:49.191Z,69.87
2023-02-03T05:15:51.360Z,69.85
2023-02-03T05:16:53.910Z,69.83
2023-02-03T05:17:56.139Z,69.90
2023-02-03T05:18:58.295Z,69.65
2023-02-03T05:20:00.482Z,69.51
2023-02-03T05:21:02.883Z,69.46
2023-02-03T05:22:05.317Z,69.29
2023-02-03T05:23:07.648Z,69.22
2023-02-03T05:24:09.959Z,69.26
2023-02-03T05:25:12.820Z,69.18
2023-02-03T05:26:15.097Z,68.95
2023-02-03T05:27:17.888Z,69.01
2023-02-03T05:28:20.098Z,68.84
2023-02-03T05:29:22.385Z,68.81
2023-02-03T05:30:24.791Z,68.86
2023-02-03T05:31:27.200Z,68.68
2023-02-03T05:32:29.460Z,68.67
2023-02-03T05:33:31.788Z,68.55
2023-02-03T05:34:34.051Z,68.46
2023-02-03T05:35:36.274Z,68.34
2023-02-03T05:36:38.455Z,68.30
2023-02-03T05:37:42.118Z,68.30
2023-02-03T05:38:44.319Z,68.28
2023-02-03T05:39:46.721Z,68.19
2023-02-03T05:41:08.631Z,68.08
2023-02-03T05:42:10.806Z,68.22
2023-02-03T05:43:13.056Z,67.96
2023-02-03T05:44:15.328Z,68.04
2023-02-03T05:45:17.627Z,67.94
2023-02-03T05:46:20.001Z,67.95
2023-02-03T05:47:23.710Z,67.91
2023-02-03T05:48:25.992Z,67.86
2023-02-03T05:49:28.217Z,67.72
2023-02-03T05:50:35.709Z,67.82
2023-02-03T05:51:47.095Z,67.75
2023-02-03T05:52:52.304Z,67.72
2023-02-03T05:53:54.491Z,67.69
2023-02-03T05:54:56.892Z,67.75
2023-02-03T05:55:59.042Z,67.74
2023-02-03T05:57:01.272Z,67.80
2023-02-03T05:58:04.379Z,67.67
2023-02-03T05:59:09.218Z,67.66
2023-02-03T06:00:12.058Z,67.70
2023-02-03T06:01:14.306Z,67.85
2023-02-03T06:02:16.509Z,67.78
2023-02-03T06:03:18.858Z,67.80
2023-02-03T06:04:21.279Z,67.76
2023-02-03T06:05:24.614Z,67.75
2023-02-03T06:06:33.115Z,67.65
2023-02-03T06:07:35.647Z,67.69
2023-02-03T06:08:37.819Z,67.78
2023-02-03T06:09:39.988Z,67.81
2023-02-03T06:10:42.175Z,67.79
2023-02-03T06:11:44.448Z,67.79
2023-02-03T06:12:47.168Z,67.83
2023-02-03T06:13:49.319Z,67.89
2023-02-03T06:14:51.532Z,67.75
2023-02-03T06:15:54.313Z,67.82
2023-02-03T06:16:56.466Z,67.93
2023-02-03T06:17:58.656Z,67.80
2023-02-03T06:19:01.152Z,67.83
2023-02-03T06:20:06.126Z,67.87
2023-02-03T06:21:08.688Z,67.83
2023-02-03T06:22:11.791Z,67.76
2023-02-03T06:23:14.058Z,67.79
2023-02-03T06:24:16.394Z,67.81
2023-02-03T06:25:18.691Z,67.80
2023-02-03T06:26:20.885Z,67.82
2023-02-03T06:27:23.238Z,67.84
2023-02-03T06:28:27.383Z,67.76
2023-02-03T06:29:29.663Z,67.81
2023-02-03T06:30:32.826Z,67.69
2023-02-03T06:31:35.212Z,67.69
2023-02-03T06:32:38.893Z,67.72
2023-02-03T06:33:42.306Z,67.67
2023-02-03T06:34:44.540Z,67.58
2023-02-03T06:35:49.186Z,67.60
2023-02-03T06:36:52.434Z,67.51
2023-02-03T06:37:55.053Z,67.49
2023-02-03T06:38:58.434Z,67.46
2023-02-03T06:40:00.655Z,67.43
2023-02-03T06:41:03.434Z,67.43
2023-02-03T06:42:06.790Z,67.55
2023-02-03T06:43:09.398Z,67.47
2023-02-03T06:44:15.686Z,67.46
2023-02-03T06:45:18.302Z,67.49
2023-02-03T06:46:20.597Z,67.42
2023-02-03T06:47:22.883Z,67.42
2023-02-03T06:48:25.473Z,67.68
2023-02-03T06:49:27.677Z,67.58
2023-02-03T06:50:30.268Z,67.64
2023-02-03T06:51:32.669Z,67.67
2023-02-03T06:52:34.854Z,67.64
2023-02-03T06:53:37.121Z,67.68
2023-02-03T06:54:39.353Z,67.71
2023-02-03T06:55:41.626Z,67.66
2023-02-03T06:56:43.979Z,67.59
2023-02-03T06:57:47.785Z,67.52
2023-02-03T06:58:49.962Z,67.58
2023-02-03T06:59:52.263Z,67.50
2023-02-03T07:00:57.630Z,67.33
2023-02-03T07:01:59.887Z,67.36
2023-02-03T07:03:03.078Z,67.28
2023-02-03T07:04:06.015Z,67.22
2023-02-03T07:05:08.499Z,67.16
2023-02-03T07:06:10.744Z,67.26
2023-02-03T07:07:14.880Z,67.13
2023-02-03T07:08:17.106Z,67.13
2023-02-03T07:09:19.405Z,67.13
2023-02-03T07:10:21.865Z,67.08
2023-02-03T07:11:24.891Z,67.16
2023-02-03T07:12:27.460Z,66.98
2023-02-03T07:13:29.920Z,66.96
2023-02-03T07:14:32.305Z,66.76
2023-02-03T07:15:35.743Z,66.83
2023-02-03T07:16:37.960Z,66.73
2023-02-03T07:17:40.133Z,66.79
2023-02-03T07:18:47.407Z,66.67
2023-02-03T07:19:50.320Z,66.69
2023-02-03T07:20:53.178Z,66.67
2023-02-03T07:21:55.891Z,66.33
2023-02-03T07:22:58.768Z,66.41
2023-02-03T07:24:03.218Z,66.55
2023-02-03T07:25:05.794Z,66.50
2023-02-03T07:26:08.814Z,66.39
2023-02-03T07:27:11.011Z,66.35
2023-02-03T07:28:13.301Z,66.31
2023-02-03T07:29:15.615Z,66.36
2023-02-03T07:30:17.850Z,66.23
2023-02-03T07:31:20.752Z,66.15
2023-02-03T07:32:23.064Z,66.07
2023-02-03T07:33:25.344Z,65.99
2023-02-03T07:34:27.636Z,65.93
2023-02-03T07:35:29.888Z,66.08
2023-02-03T07:36:32.799Z,65.81
2023-02-03T07:37:34.974Z,65.97
2023-02-03T07:38:38.629Z,65.81
2023-02-03T07:39:40.983Z,65.78
2023-02-03T07:40:44.253Z,65.81
2023-02-03T07:41:46.586Z,65.81
2023-02-03T07:42:49.783Z,65.77
2023-02-03T07:43:52.001Z,65.77
2023-02-03T07:44:54.164Z,65.77
2023-02-03T07:45:56.361Z,65.69
2023-02-03T07:46:58.619Z,65.74
2023-02-03T07:48:01.799Z,65.77
2023-02-03T07:49:05.940Z,65.73
2023-02-03T07:50:08.964Z,65.87
2023-02-03T07:51:11.383Z,65.77
2023-02-03T07:52:13.630Z,65.83
2023-02-03T07:53:16.032Z,65.92
2023-02-03T07:54:18.297Z,65.87
2023-02-03T07:55:21.813Z,65.90
2023-02-03T07:56:25.827Z,66.02
2023-02-03T07:57:29.634Z,65.97
2023-02-03T07:58:32.678Z,65.99
2023-02-03T07:59:34.920Z,66.01
2023-02-03T08:00:38.833Z,66.16
2023-02-03T08:01:41.075Z,66.14
2023-02-03T08:02:43.836Z,66.01
2023-02-03T08:03:46.097Z,66.17
2023-02-03T08:04:50.067Z,66.19
2023-02-03T08:05:53.639Z,66.27
2023-02-03T08:06:56.142Z,66.28
2023-02-03T08:07:59.584Z,66.18
2023-02-03T08:09:01.818Z,66.33
2023-02-03T08:10:04.576Z,66.34
2023-02-03T08:11:07.141Z,66.22
2023-02-03T08:12:09.636Z,66.23
2023-02-03T08:13:11.839Z,66.15
2023-02-03T08:14:14.615Z,66.07
2023-02-03T08:15:17.473Z,66.07
2023-02-03T08:16:19.899Z,66.01
2023-02-03T08:17:22.612Z,66.04
2023-02-03T08:18:26.333Z,66.20
2023-02-03T08:19:28.847Z,66.11
2023-02-03T08:20:31.295Z,66.22
2023-02-03T08:21:33.640Z,66.09
2023-02-03T08:22:36.154Z,66.22
2023-02-03T08:23:38.574Z,66.20
2023-02-03T08:24:44.930Z,66.11
2023-02-03T08:25:51.474Z,66.20
2023-02-03T08:26:55.237Z,66.16
2023-02-03T08:27:57.623Z,66.25
2023-02-03T08:28:59.830Z,66.30
2023-02-03T08:30:02.162Z,66.23
2023-02-03T08:31:10.674Z,66.18
2023-02-03T08:32:18.790Z,66.49
2023-02-03T08:33:23.102Z,66.36
2023-02-03T08:34:25.884Z,66.26
2023-02-03T08:35:28.510Z,66.38
2023-02-03T08:36:30.692Z,66.52
2023-02-03T08:37:33.020Z,66.54
2023-02-03T08:38:35.212Z,66.56
2023-02-03T08:39:38.081Z,66.75
2023-02-03T08:40:40.283Z,66.70
2023-02-03T08:41:42.516Z,66.76
2023-02-03T08:42:44.744Z,66.86
2023-02-03T08:43:47.136Z,66.87
2023-02-03T08:44:52.456Z,66.70
2023-02-03T08:45:54.761Z,66.91
2023-02-03T08:46:57.666Z,66.91
2023-02-03T08:48:00.542Z,66.96
2023-02-03T08:49:03.756Z,66.92
2023-02-03T08:50:11.879Z,66.98
2023-02-03T08:51:16.550Z,67.09
2023-02-03T08:52:20.241Z,67.05
2023-02-03T08:53:22.556Z,67.08
2023-02-03T08:54:26.280Z,67.18
2023-02-03T08:55:28.942Z,67.25
2023-02-03T08:56:34.285Z,67.23
2023-02-03T08:57:37.527Z,67.22
2023-02-03T08:58:40.221Z,67.31
2023-02-03T08:59:43.866Z,67.40
2023-02-03T09:00:49.135Z,67.40
2023-02-03T09:01:53.629Z,67.41
2023-02-03T09:02:55.829Z,67.52
2023-02-03T09:03:58.140Z,67.43
2023-02-03T09:05:00.635Z,67.57
2023-02-03T09:06:03.568Z,67.56
2023-02-03T09:07:05.867Z,67.46
2023-02-03T09:08:08.150Z,67.51
2023-02-03T09:09:11.105Z,67.41
2023-02-03T09:10:13.370Z,67.52
2023-02-03T09:11:18.471Z,67.64
2023-02-03T09:12:23.337Z,67.61
2023-02-03T09:13:25.763Z,67.58
2023-02-03T09:14:29.706Z,67.71
2023-02-03T09:15:32.052Z,67.61
2023-02-03T09:16:35.942Z,67.63
2023-02-03T09:17:41.058Z,67.76
2023-02-03T09:18:45.736Z,67.78
2023-02-03T09:19:49.348Z,67.75
2023-02-03T09:20:51.542Z,67.71
2023-02-03T09:21:53.787Z,67.75
2023-02-03T09:22:59.671Z,67.76
2023-02-03T09:24:03.854Z,67.82
2023-02-03T09:25:07.152Z,67.80
2023-02-03T09:26:12.431Z,67.77
2023-02-03T09:27:15.220Z,67.83
2023-02-03T09:28:18.464Z,67.89
2023-02-03T09:29:20.870Z,67.81
2023-02-03T09:30:23.460Z,67.92
2023-02-03T09:31:26.042Z,67.86
2023-02-03T09:32:28.270Z,67.87
2023-02-03T09:33:30.939Z,67.93
2023-02-03T09:34:33.228Z,67.95
2023-02-03T09:35:35.776Z,67.89
2023-02-03T09:36:38.124Z,67.75
2023-02-03T09:37:42.628Z,67.83
2023-02-03T09:38:44.893Z,67.91
2023-02-03T09:39:48.997Z,67.91
2023-02-03T09:41:12.115Z,67.97
2023-02-03T09:42:29.954Z,68.00
2023-02-03T09:43:33.678Z,68.11
2023-02-03T09:44:48.916Z,68.13
2023-02-03T09:45:51.740Z,68.06
2023-02-03T09:47:00.743Z,68.29
2023-02-03T09:48:14.263Z,68.25
2023-02-03T09:49:42.803Z,68.34
2023-02-03T09:50:46.619Z,68.35
2023-02-03T09:52:01.163Z,68.40
2023-02-03T09:53:13.929Z,68.37
2023-02-03T09:54:21.929Z,68.32
2023-02-03T09:55:34.115Z,68.44
2023-02-03T09:56:37.135Z,68.26
2023-02-03T09:57:48.231Z,68.30
2023-02-03T09:58:50.584Z,68.29
2023-02-03T09:59:55.987Z,68.26
2023-02-03T10:01:05.793Z,68.12
2023-02-03T10:02:40.908Z,68.20
2023-02-03T10:03:51.270Z,67.99
2023-02-03T10:05:16.900Z,68.01
2023-02-03T10:06:37.042Z,67.89
2023-02-03T10:07:47.072Z,67.96
2023-02-03T10:09:21.968Z,67.85
2023-02-03T10:10:39.477Z,67.87
2023-02-03T10:11:44.377Z,67.87
2023-02-03T10:13:13.849Z,67.85
2023-02-03T10:14:35.730Z,68.01
2023-02-03T10:15:43.642Z,68.18
2023-02-03T10:16:56.490Z,68.00
2023-02-03T10:18:04.863Z,68.16
2023-02-03T10:19:16.019Z,68.24
2023-02-03T10:20:24.202Z,68.37
2023-02-03T10:21:35.312Z,68.44
2023-02-03T10:22:49.899Z,68.46
2023-02-03T10:23:55.429Z,68.48
2023-02-03T10:25:15.929Z,68.61
2023-02-03T10:26:23.081Z,68.72
2023-02-03T10:27:26.066Z,68.77
2023-02-03T10:28:31.977Z,68.69
2023-02-03T10:29:43.644Z,68.76
2023-02-03T10:30:54.328Z,68.73
2023-02-03T10:31:59.060Z,68.83
2023-02-03T10:33:11.173Z,68.86
2023-02-03T10:34:16.506Z,68.91
2023-02-03T10:35:21.149Z,68.97
2023-02-03T10:36:30.968Z,68.91
2023-02-03T10:37:43.125Z,68.97
2023-02-03T10:39:09.854Z,68.83
2023-02-03T10:40:15.096Z,68.92
2023-02-03T10:41:21.871Z,68.84
2023-02-03T10:42:24.627Z,68.78
2023-02-03T10:43:50.772Z,68.70
2023-02-03T10:44:59.705Z,68.68
2023-02-03T10:46:02.533Z,68.58
2023-02-03T10:47:35.814Z,68.55
2023-02-03T10:48:38.008Z,68.49
2023-02-03T10:49:42.557Z,68.40
2023-02-03T10:50:48.907Z,68.33
2023-02-03T10:52:00.582Z,68.25
2023-02-03T10:53:27.010Z,68.22
2023-02-03T10:54:35.248Z,68.07
2023-02-03T10:55:37.591Z,68.01
2023-02-03T10:56:41.038Z,68.01
2023-02-03T10:57:43.343Z,68.06
2023-02-03T10:58:58.640Z,68.05
2023-02-03T11:00:24.721Z,67.85
2023-02-03T11:01:38.865Z,67.80
2023-02-03T11:02:42.122Z,67.71
2023-02-03T11:03:56.951Z,67.74
2023-02-03T11:05:12.265Z,67.71
2023-02-03T11:06:19.309Z,67.62
2023-02-03T11:07:27.228Z,67.61
2023-02-03T11:08:30.969Z,67.63
2023-02-03T11:09:37.651Z,67.49
2023-02-03T11:10:43.377Z,67.50
2023-02-03T11:11:45.566Z,67.33
2023-02-03T11:12:47.775Z,67.25
2023-02-03T11:13:56.501Z,67.13
2023-02-03T11:15:05.651Z,67.07
2023-02-03T11:16:16.373Z,67.09
2023-02-03T11:17:23.174Z,66.94
2023-02-03T11:19:01.293Z,67.00
2023-02-03T11:20:14.677Z,67.00
2023-02-03T11:21:23.355Z,67.06
2023-02-03T11:22:37.084Z,66.98
2023-02-03T11:23:49.734Z,67.17
2023-02-03T11:24:52.134Z,67.18
2023-02-03T11:25:54.426Z,67.27
2023-02-03T11:27:04.969Z,67.39
2023-02-03T11:28:11.391Z,67.39
2023-02-03T11:29:23.858Z,67.42
2023-02-03T11:30:31.604Z,67.57
2023-02-03T11:31:37.783Z,67.67
2023-02-03T11:32:43.336Z,67.74
2023-02-03T11:33:54.323Z,67.74
2023-02-03T11:35:14.564Z,67.89
2023-02-03T11:36:18.990Z,68.09
2023-02-03T11:37:28.451Z,68.20
2023-02-03T11:38:39.487Z,68.16
2023-02-03T11:39:41.731Z,68.26
2023-02-03T11:40:43.956Z,68.37
2023-02-03T11:41:47.790Z,68.38
2023-02-03T11:42:50.093Z,68.47
2023-02-03T11:43:55.962Z,68.57
2023-02-03T11:45:27.259Z,68.56
2023-02-03T11:46:29.569Z,68.63
2023-02-03T11:47:31.858Z,68.68
2023-02-03T11:48:44.637Z,68.59
2023-02-03T11:49:52.653Z,68.72
2023-02-03T11:51:08.776Z,68.80
2023-02-03T11:52:33.265Z,68.79
2023-02-03T11:54:19.281Z,68.77
2023-02-03T11:55:33.030Z,68.87
2023-02-03T11:57:00.203Z,68.90
2023-02-03T11:58:30.285Z,68.91
2023-02-03T11:59:50.440Z,68.90
2023-02-03T12:01:03.727Z,69.10
2023-02-03T12:02:15.677Z,69.02
2023-02-03T12:03:31.022Z,69.12
2023-02-03T12:05:11.372Z,69.15
2023-02-03T12:06:37.412Z,69.27
2023-02-03T12:07:54.782Z,69.26
2023-02-03T12:09:12.269Z,69.33
2023-02-03T12:10:45.599Z,69.24
2023-02-03T12:12:00.160Z,69.36
2023-02-03T12:13:14.562Z,69.46
2023-02-03T12:14:42.574Z,69.42
2023-02-03T12:15:50.647Z,69.42
2023-02-03T12:17:13.355Z,69.26
2023-02-03T12:18:26.843Z,69.15
2023-02-03T12:19:48.259Z,69.10
2023-02-03T12:21:31.272Z,69.02
2023-02-03T12:22:43.714Z,68.89
2023-02-03T12:24:05.335Z,68.89
2023-02-03T12:25:31.897Z,68.79
2023-02-03T12:26:50.873Z,68.71
2023-02-03T12:28:05.912Z,68.65
2023-02-03T12:29:23.689Z,68.50
2023-02-03T12:30:33.205Z,68.49
2023-02-03T12:32:05.719Z,68.51
2023-02-03T12:33:21.491Z,68.46
2023-02-03T12:34:30.493Z,68.50
2023-02-03T12:35:39.825Z,68.29
2023-02-03T12:36:53.805Z,68.20
2023-02-03T12:38:05.745Z,68.20
2023-02-03T12:39:19.140Z,68.07
2023-02-03T12:40:43.199Z,68.04
2023-02-03T12:41:59.530Z,68.00
2023-02-03T12:43:25.873Z,67.81
2023-02-03T12:44:44.831Z,67.71
2023-02-03T12:46:07.788Z,67.76
2023-02-03T12:47:28.417Z,67.66
2023-02-03T12:48:46.031Z,67.87
2023-02-03T12:49:55.500Z,67.47
2023-02-03T12:51:03.557Z,67.47
2023-02-03T12:52:16.018Z,67.47
2023-02-03T12:53:27.768Z,67.48
2023-02-03T12:54:59.724Z,67.44
2023-02-03T12:56:12.417Z,67.61
2023-02-03T12:57:25.561Z,67.64
2023-02-03T12:58:57.710Z,67.65
2023-02-03T13:00:18.264Z,67.70
2023-02-03T13:01:24.883Z,67.90
2023-02-03T13:02:33.110Z,67.78
2023-02-03T13:04:16.491Z,67.87
2023-02-03T13:05:41.322Z,67.87
2023-02-03T13:06:57.456Z,67.95
2023-02-03T13:08:13.978Z,68.27
2023-02-03T13:09:27.677Z,68.40
2023-02-03T13:10:45.328Z,68.36
2023-02-03T13:12:12.546Z,65.73
2023-02-03T13:13:21.200Z,64.35
2023-02-03T13:14:34.891Z,63.03
2023-02-03T13:15:50.698Z,62.19
2023-02-03T13:17:04.337Z,62.18
2023-02-03T13:18:26.763Z,61.67
2023-02-03T13:19:39.425Z,61.43
2023-02-03T13:20:41.833Z,61.55
2023-02-03T13:21:44.116Z,61.53
2023-02-03T13:22:46.868Z,61.78
2023-02-03T13:23:51.616Z,62.08
2023-02-03T13:25:06.518Z,62.43
2023-02-03T13:26:32.089Z,62.75
2023-02-03T13:27:59.523Z,63.03
2023-02-03T13:29:25.801Z,62.95
2023-02-03T13:30:35.774Z,62.86
2023-02-03T13:31:50.255Z,62.95
2023-02-03T13:33:22.161Z,62.45
2023-02-03T13:34:36.876Z,62.36
2023-02-03T13:35:54.766Z,62.07
2023-02-03T13:37:25.929Z,61.58
2023-02-03T13:38:58.331Z,61.38
2023-02-03T13:40:15.022Z,61.24
2023-02-03T13:41:29.909Z,61.00
2023-02-03T13:42:37.587Z,60.64
2023-02-03T13:43:47.232Z,60.07
2023-02-03T13:45:04.937Z,60.24
2023-02-03T13:46:29.297Z,60.20
2023-02-03T13:47:33.194Z,60.17
2023-02-03T13:48:35.894Z,59.82
2023-02-03T13:49:38.219Z,59.54
2023-02-03T13:50:42.967Z,59.44
2023-02-03T13:51:46.466Z,59.10
2023-02-03T13:52:57.943Z,58.93
2023-02-03T13:54:08.125Z,58.81
2023-02-03T13:55:43.789Z,59.13
2023-02-03T13:57:00.067Z,58.52
2023-02-03T13:58:04.505Z,58.54
2023-02-03T13:59:15.674Z,58.45
2023-02-03T14:00:43.204Z,58.61
2023-02-03T14:01:46.386Z,58.41
2023-02-03T14:02:53.795Z,58.20
2023-02-03T14:03:58.223Z,58.38
2023-02-03T14:05:02.441Z,58.49
2023-02-03T14:06:26.427Z,58.69
2023-02-03T14:07:28.613Z,58.49
2023-02-03T14:08:30.837Z,58.56
2023-02-03T14:09:36.145Z,58.62
2023-02-03T14:10:38.543Z,58.81
2023-02-03T14:11:41.789Z,58.58
2023-02-03T14:12:50.049Z,58.63
2023-02-03T14:13:52.275Z,58.63
2023-02-03T14:14:54.786Z,58.40
2023-02-03T14:16:22.378Z,58.72
2023-02-03T14:17:47.329Z,58.75
2023-02-03T14:18:51.016Z,58.63
2023-02-03T14:19:53.162Z,58.45
2023-02-03T14:21:08.625Z,58.28
2023-02-03T14:22:17.557Z,58.37
2023-02-03T14:23:26.081Z,57.72
2023-02-03T14:24:34.583Z,57.69
2023-02-03T14:25:47.457Z,57.37
2023-02-03T14:26:54.687Z,57.50
2023-02-03T14:28:04.193Z,57.57
2023-02-03T14:29:09.331Z,57.55